Time;durP1;ratioP1;P1;durP2;ratioP2;P2;SDS_P1;SDS_P2;PMS_P1;PMS_P2;Temp;Humidity;BMP_temperature;BMP_pressure;BME280_temperature;BME280_humidity;BME280_pressure;Samples;Min_cycle;Max_cycle;Signal;HPM_P1;HPM_P2
2021/01/27 00:00:43;;;;;;;9.85;8.40;;;1.00;94.20;;;;;;5053256;28;20232;-81
2021/01/27 00:03:09;;;;;;;8.70;7.80;;;1.10;93.90;;;;;;5055274;28;20241;-81
2021/01/27 00:05:38;;;;;;;8.75;7.95;;;1.20;93.70;;;;;;5066683;28;20234;-81
2021/01/27 00:08:06;;;;;;;8.15;6.75;;;1.10;93.60;;;;;;5070819;28;20628;-80
2021/01/27 00:10:33;;;;;;;9.45;7.50;;;1.10;93.60;;;;;;5056175;28;20200;-80
2021/01/27 00:13:01;;;;;;;8.32;7.53;;;1.00;93.70;;;;;;5053823;28;20202;-80
2021/01/27 00:15:31;;;;;;;8.77;7.35;;;0.90;93.90;;;;;;5060935;28;20250;-81
2021/01/27 00:17:58;;;;;;;11.07;7.25;;;1.00;94.40;;;;;;5052154;28;20236;-80
2021/01/27 00:20:26;;;;;;;11.70;7.05;;;1.10;94.30;;;;;;5053439;28;20235;-80
2021/01/27 00:22:53;;;;;;;9.18;7.07;;;0.90;94.10;;;;;;5055263;28;20224;-80
2021/01/27 00:25:23;;;;;;;9.70;6.82;;;0.90;94.30;;;;;;5065597;28;20211;-80
2021/01/27 00:27:50;;;;;;;9.60;7.50;;;1.00;94.40;;;;;;5062482;28;20769;-80
2021/01/27 00:30:20;;;;;;;6.45;5.78;;;1.20;94.20;;;;;;5063143;28;20199;-80
2021/01/27 00:32:47;;;;;;;6.68;6.05;;;1.30;94.10;;;;;;5070499;28;20356;-80
2021/01/27 00:35:15;;;;;;;9.45;6.40;;;1.20;93.90;;;;;;5063056;28;20206;-80
2021/01/27 00:37:41;;;;;;;8.15;6.82;;;1.30;94.10;;;;;;5069957;28;20200;-80
2021/01/27 00:40:09;;;;;;;7.25;6.55;;;1.40;94.10;;;;;;5064165;28;20255;-81
2021/01/27 00:42:36;;;;;;;8.63;6.57;;;1.40;93.90;;;;;;5054993;28;20290;-80
2021/01/27 00:45:03;;;;;;;7.88;6.78;;;1.40;93.90;;;;;;5060257;28;20207;-81
2021/01/27 00:47:29;;;;;;;7.63;6.13;;;1.40;93.90;;;;;;5052706;28;20252;-80
2021/01/27 00:49:57;;;;;;;9.88;7.75;;;1.30;93.70;;;;;;5066454;28;20751;-81
2021/01/27 00:52:23;;;;;;;9.95;6.63;;;1.30;93.80;;;;;;5051112;28;20226;-81
2021/01/27 00:54:49;;;;;;;8.85;7.25;;;1.20;94.10;;;;;;5062926;28;20218;-80
2021/01/27 00:57:16;;;;;;;8.40;7.18;;;1.30;94.10;;;;;;5054089;28;20290;-80
2021/01/27 00:59:42;;;;;;;11.32;7.60;;;1.30;94.10;;;;;;5061516;28;20743;-81
2021/01/27 01:02:09;;;;;;;9.60;7.43;;;1.30;94.50;;;;;;5072301;28;20207;-80
2021/01/27 01:04:36;;;;;;;11.18;7.78;;;1.40;94.30;;;;;;5063842;28;20211;-80
2021/01/27 01:07:03;;;;;;;10.63;7.75;;;1.30;94.30;;;;;;5060030;28;20204;-80
2021/01/27 01:09:29;;;;;;;11.50;8.07;;;1.10;94.50;;;;;;5058562;28;20705;-80
2021/01/27 01:11:56;;;;;;;9.70;7.32;;;0.90;94.70;;;;;;5061067;28;20282;-80
2021/01/27 01:14:22;;;;;;;9.90;7.85;;;1.10;95.00;;;;;;5061978;28;20280;-80
2021/01/27 01:16:49;;;;;;;6.90;6.20;;;1.10;94.90;;;;;;5061403;28;20544;-81
2021/01/27 01:19:16;;;;;;;11.55;7.93;;;1.20;95.00;;;;;;5064472;28;20203;-80
2021/01/27 01:21:42;;;;;;;10.00;6.63;;;1.20;94.70;;;;;;5057630;28;20211;-80
2021/01/27 01:24:10;;;;;;;10.48;8.20;;;1.30;94.80;;;;;;5057389;28;20231;-80
2021/01/27 01:26:36;;;;;;;7.95;6.80;;;1.40;94.80;;;;;;5068283;28;20308;-80
2021/01/27 01:29:03;;;;;;;8.02;7.18;;;1.20;94.30;;;;;;5066504;28;20326;-80
2021/01/27 01:31:30;;;;;;;7.40;6.70;;;1.10;94.60;;;;;;5050249;28;20208;-81
2021/01/27 01:33:56;;;;;;;10.30;8.02;;;1.00;94.70;;;;;;5061374;28;20629;-80
2021/01/27 01:36:22;;;;;;;10.23;8.02;;;1.00;94.80;;;;;;5071260;28;20203;-81
2021/01/27 01:38:49;;;;;;;13.18;7.07;;;1.00;95.10;;;;;;5060527;28;20666;-80
2021/01/27 01:41:16;;;;;;;12.82;7.38;;;1.30;95.40;;;;;;5051551;28;20208;-81
2021/01/27 01:43:43;;;;;;;7.90;7.10;;;1.30;94.90;;;;;;5051446;28;20254;-80
2021/01/27 01:46:14;;;;;;;9.30;7.55;;;1.40;94.80;;;;;;5069066;28;20235;-81
2021/01/27 01:48:43;;;;;;;9.18;7.97;;;1.50;94.70;;;;;;5068222;28;20714;-80
2021/01/27 01:51:14;;;;;;;8.23;6.88;;;1.40;94.30;;;;;;5051650;28;20208;-81
2021/01/27 01:53:41;;;;;;;9.45;6.97;;;1.50;94.50;;;;;;5052885;28;20239;-80
2021/01/27 01:56:09;;;;;;;7.93;6.90;;;1.20;94.30;;;;;;5070284;28;20838;-81
2021/01/27 01:58:39;;;;;;;9.40;7.20;;;1.20;94.60;;;;;;5051791;28;20208;-80
2021/01/27 02:01:06;;;;;;;8.60;7.20;;;1.20;94.90;;;;;;5070363;28;20195;-80
2021/01/27 02:03:35;;;;;;;9.20;6.95;;;1.30;94.70;;;;;;5050699;28;20601;-81
2021/01/27 02:06:05;;;;;;;8.32;6.70;;;1.30;94.60;;;;;;5051420;28;20200;-81
2021/01/27 02:08:36;;;;;;;8.07;6.93;;;1.40;94.60;;;;;;5051711;28;20228;-80
2021/01/27 02:11:04;;;;;;;7.55;6.85;;;1.30;94.50;;;;;;5069540;28;20236;-81
2021/01/27 02:14:03;;;;;;;8.95;7.00;;;1.40;94.70;;;;;;5050510;28;20291;-80
2021/01/27 02:16:40;;;;;;;8.32;6.75;;;1.50;94.60;;;;;;5054261;28;20907;-80
2021/01/27 02:19:50;;;;;;;7.97;7.05;;;1.30;94.50;;;;;;5058821;28;20575;-81
2021/01/27 02:22:50;;;;;;;8.65;7.57;;;1.30;94.30;;;;;;5050963;28;20234;-81
2021/01/27 02:25:54;;;;;;;12.75;6.93;;;1.20;94.40;;;;;;5042213;28;20208;-81
2021/01/27 02:28:38;;;;;;;6.32;5.70;;;1.30;94.70;;;;;;5050040;28;20707;-81
2021/01/27 02:31:14;;;;;;;8.93;8.00;;;1.30;94.60;;;;;;5066911;28;20199;-81
2021/01/27 02:34:12;;;;;;;8.15;6.40;;;1.20;94.40;;;;;;5062020;28;20203;-81
2021/01/27 02:36:45;;;;;;;9.38;7.47;;;1.30;94.30;;;;;;5068287;28;20192;-80
2021/01/27 02:39:19;;;;;;;7.03;6.32;;;1.10;94.40;;;;;;5053443;28;20249;-81
2021/01/27 02:41:55;;;;;;;12.18;7.22;;;1.20;94.70;;;;;;5049972;28;20902;-81
2021/01/27 02:44:36;;;;;;;9.15;6.97;;;1.20;94.70;;;;;;5066249;28;20226;-81
2021/01/27 02:47:12;;;;;;;10.15;6.63;;;1.00;94.40;;;;;;5055938;28;20207;-81
2021/01/27 02:49:48;;;;;;;8.07;7.25;;;1.00;94.70;;;;;;5054297;28;20277;-81
2021/01/27 02:52:22;;;;;;;9.00;7.32;;;1.10;94.70;;;;;;5067695;28;20233;-81
2021/01/27 02:54:56;;;;;;;11.63;6.93;;;1.20;94.60;;;;;;5061444;28;20203;-81
2021/01/27 02:57:30;;;;;;;9.90;6.72;;;1.20;94.50;;;;;;5056828;28;20720;-81
2021/01/27 03:00:01;;;;;;;9.13;7.68;;;1.20;94.50;;;;;;5063297;28;20294;-80
2021/01/27 03:02:34;;;;;;;8.82;7.53;;;1.30;94.60;;;;;;5069570;28;20203;-81
2021/01/27 03:05:07;;;;;;;7.38;6.22;;;1.20;94.40;;;;;;5051669;28;20260;-81
2021/01/27 03:07:38;;;;;;;7.15;6.35;;;1.20;94.50;;;;;;5067879;28;20203;-81
2021/01/27 03:10:09;;;;;;;11.20;6.50;;;1.30;94.50;;;;;;5062444;28;20199;-81
2021/01/27 03:12:36;;;;;;;6.55;5.95;;;1.10;94.40;;;;;;5069083;28;20252;-80
2021/01/27 03:15:06;;;;;;;7.03;6.32;;;1.20;94.60;;;;;;5059068;28;20532;-81
2021/01/27 03:17:33;;;;;;;9.68;6.22;;;1.20;94.60;;;;;;5069784;28;20199;-80
2021/01/27 03:20:07;;;;;;;9.70;6.78;;;1.30;94.60;;;;;;5059877;28;20553;-81
2021/01/27 03:22:42;;;;;;;7.20;6.50;;;1.40;94.40;;;;;;5054449;28;20211;-80
2021/01/27 03:25:12;;;;;;;7.40;6.60;;;1.50;94.30;;;;;;5059801;28;20210;-81
2021/01/27 03:27:44;;;;;;;6.25;5.65;;;1.60;94.10;;;;;;5061332;28;20250;-80
2021/01/27 03:30:13;;;;;;;13.18;6.57;;;1.60;93.90;;;;;;5066692;28;20203;-81
2021/01/27 03:32:44;;;;;;;7.30;6.25;;;1.50;93.80;;;;;;5062831;28;20353;-81
2021/01/27 03:35:15;;;;;;;7.10;6.15;;;1.50;94.00;;;;;;5057075;28;20260;-81
2021/01/27 03:37:48;;;;;;;7.07;5.90;;;1.50;93.90;;;;;;5067854;28;20199;-81
2021/01/27 03:40:18;;;;;;;6.45;5.85;;;1.60;94.10;;;;;;5055823;28;20192;-81
2021/01/27 03:42:56;;;;;;;8.00;6.10;;;1.50;94.10;;;;;;5059540;28;20187;-81
2021/01/27 03:45:26;;;;;;;8.73;5.50;;;1.50;93.80;;;;;;5054932;28;20226;-80
2021/01/27 03:47:59;;;;;;;6.47;5.60;;;1.50;93.90;;;;;;5065444;28;20618;-81
2021/01/27 03:50:26;;;;;;;6.35;5.53;;;1.60;93.70;;;;;;5053568;28;20262;-81
2021/01/27 03:52:57;;;;;;;7.18;5.15;;;1.50;93.70;;;;;;5052335;28;20600;-81
2021/01/27 03:55:27;;;;;;;6.15;5.00;;;1.40;93.60;;;;;;5059768;28;20196;-81
2021/01/27 03:58:01;;;;;;;5.60;5.15;;;1.40;93.80;;;;;;5050417;28;20533;-81
2021/01/27 04:00:30;;;;;;;5.95;5.03;;;1.50;93.70;;;;;;5053615;28;20254;-80
2021/01/27 04:03:05;;;;;;;10.43;5.45;;;1.70;93.60;;;;;;5067591;28;20219;-81
2021/01/27 04:05:32;;;;;;;7.68;5.55;;;1.70;93.20;;;;;;5066667;28;20191;-80
2021/01/27 04:07:59;;;;;;;5.25;4.75;;;1.70;93.30;;;;;;5065125;28;20225;-81
2021/01/27 04:10:25;;;;;;;5.93;5.35;;;1.60;92.90;;;;;;5065315;28;20203;-81
2021/01/27 04:12:52;;;;;;;5.78;5.18;;;1.70;93.20;;;;;;5049977;28;20204;-81
2021/01/27 04:15:18;;;;;;;6.35;5.00;;;1.70;93.00;;;;;;5060365;28;20206;-81
2021/01/27 04:17:44;;;;;;;6.90;5.28;;;1.80;93.10;;;;;;5067460;28;20733;-82
2021/01/27 04:20:12;;;;;;;7.50;5.15;;;1.70;92.70;;;;;;5056662;28;20675;-81
2021/01/27 04:22:38;;;;;;;10.02;6.00;;;1.40;93.00;;;;;;5055651;28;20195;-81
2021/01/27 04:25:07;;;;;;;5.88;5.22;;;1.50;93.30;;;;;;5060987;28;20208;-82
2021/01/27 04:27:34;;;;;;;6.25;5.32;;;1.70;93.20;;;;;;5065719;28;20211;-81
2021/01/27 04:30:00;;;;;;;5.55;4.85;;;1.80;93.00;;;;;;5070913;28;20711;-80
2021/01/27 04:32:27;;;;;;;6.05;4.30;;;1.80;92.90;;;;;;5072793;28;20239;-81
2021/01/27 04:34:53;;;;;;;5.80;4.65;;;1.90;92.70;;;;;;5052605;28;20222;-81
2021/01/27 04:37:19;;;;;;;6.30;5.35;;;1.90;92.90;;;;;;5052381;28;20258;-81
2021/01/27 04:39:46;;;;;;;7.30;4.55;;;1.90;92.50;;;;;;5069120;28;20253;-82
2021/01/27 04:42:13;;;;;;;5.28;4.80;;;1.90;92.50;;;;;;5056415;28;20200;-81
2021/01/27 04:44:39;;;;;;;7.10;5.35;;;2.00;92.40;;;;;;5057537;28;20256;-81
2021/01/27 04:47:15;;;;;;;6.57;4.78;;;1.90;92.50;;;;;;5072388;28;20203;-80
2021/01/27 04:49:45;;;;;;;7.45;5.72;;;1.90;92.30;;;;;;5065802;28;20301;-82
2021/01/27 04:52:18;;;;;;;8.30;5.05;;;1.90;92.40;;;;;;5072920;28;20657;-81
2021/01/27 04:55:00;;;;;;;6.07;5.47;;;1.80;92.30;;;;;;5059971;28;20624;-81
2021/01/27 04:57:54;;;;;;;6.05;5.50;;;1.50;92.20;;;;;;5060485;28;20204;-80
2021/01/27 05:00:33;;;;;;;4.90;4.50;;;1.50;92.80;;;;;;5047021;28;20247;-81
2021/01/27 05:03:27;;;;;;;7.97;5.30;;;1.70;93.00;;;;;;5055745;28;20211;-81
2021/01/27 05:05:58;;;;;;;5.38;4.85;;;1.80;92.80;;;;;;5066213;28;20203;-82
2021/01/27 05:08:30;;;;;;;4.80;4.32;;;1.60;92.60;;;;;;5064543;28;20294;-81
2021/01/27 05:11:02;;;;;;;5.05;4.63;;;1.50;92.50;;;;;;5053002;28;20239;-81
2021/01/27 05:13:32;;;;;;;6.43;4.95;;;1.70;92.70;;;;;;5070033;28;20260;-81
2021/01/27 05:16:01;;;;;;;6.00;5.40;;;1.90;92.40;;;;;;5057550;28;20865;-81
2021/01/27 05:18:28;;;;;;;5.68;5.03;;;1.90;92.20;;;;;;5059027;28;20206;-80
2021/01/27 05:20:55;;;;;;;8.70;6.32;;;1.90;92.20;;;;;;5071740;28;20231;-81
2021/01/27 05:23:21;;;;;;;6.57;5.43;;;2.00;92.10;;;;;;5061882;28;20545;-81
2021/01/27 05:25:55;;;;;;;6.72;4.80;;;2.00;91.80;;;;;;5052514;28;20243;-81
2021/01/27 05:28:26;;;;;;;6.97;4.05;;;2.00;91.80;;;;;;5070498;28;20643;-82
2021/01/27 05:30:55;;;;;;;5.22;4.55;;;2.00;91.80;;;;;;5053217;28;20795;-82
2021/01/27 05:33:42;;;;;;;5.32;4.80;;;2.10;91.70;;;;;;5054001;28;20200;-81
2021/01/27 05:36:11;;;;;;;5.78;5.28;;;2.10;91.50;;;;;;5064059;28;20259;-81
2021/01/27 05:38:38;;;;;;;7.18;4.80;;;2.10;91.80;;;;;;5065033;28;20486;-81
2021/01/27 05:41:07;;;;;;;5.50;5.00;;;2.10;91.70;;;;;;5071236;28;20207;-82
2021/01/27 05:43:36;;;;;;;5.38;4.57;;;2.10;91.40;;;;;;5071543;28;20720;-81
2021/01/27 05:46:12;;;;;;;5.72;5.22;;;2.00;91.40;;;;;;5057562;28;20207;-81
2021/01/27 05:48:48;;;;;;;5.10;4.55;;;2.10;91.60;;;;;;5063252;28;20238;-81
2021/01/27 05:51:18;;;;;;;5.68;4.82;;;2.10;91.50;;;;;;5073532;28;20199;-81
2021/01/27 05:53:44;;;;;;;5.18;4.75;;;2.20;91.30;;;;;;5062439;28;20204;-81
2021/01/27 05:56:16;;;;;;;7.60;7.00;;;2.20;91.20;;;;;;5065355;28;20239;-81
2021/01/27 05:58:47;;;;;;;5.90;4.68;;;2.10;91.30;;;;;;5057658;28;20294;-81
2021/01/27 06:01:30;;;;;;;5.70;4.97;;;2.10;91.30;;;;;;5051206;28;20196;-81
2021/01/27 06:04:00;;;;;;;8.70;5.60;;;2.20;91.40;;;;;;5052330;28;20236;-81
2021/01/27 06:06:28;;;;;;;6.22;5.38;;;2.10;91.40;;;;;;5059813;28;20196;-82
2021/01/27 06:08:57;;;;;;;6.00;5.40;;;2.00;91.60;;;;;;5059629;28;20219;-82
2021/01/27 06:11:25;;;;;;;6.25;5.40;;;2.00;91.80;;;;;;5059921;28;20227;-82
2021/01/27 06:14:06;;;;;;;5.28;4.30;;;1.90;91.60;;;;;;5060997;28;20726;-81
2021/01/27 06:16:40;;;;;;;5.10;4.60;;;1.70;91.80;;;;;;5058751;28;20552;-81
2021/01/27 06:19:15;;;;;;;4.85;3.85;;;1.50;91.50;;;;;;5060258;28;20203;-82
2021/01/27 06:21:59;;;;;;;6.53;4.43;;;1.60;91.90;;;;;;5054847;28;20196;-82
2021/01/27 06:24:44;;;;;;;6.05;4.45;;;1.60;91.70;;;;;;5065542;28;20191;-82
2021/01/27 06:27:52;;;;;;;5.20;4.57;;;1.80;91.80;;;;;;5070816;28;20247;-83
2021/01/27 06:30:36;;;;;;;4.07;3.53;;;1.50;91.50;;;;;;5068111;28;20231;-84
2021/01/27 06:33:49;;;;;;;7.47;5.05;;;1.70;92.00;;;;;;5050708;28;20718;-83
2021/01/27 06:36:36;;;;;;;5.05;4.47;;;1.90;91.90;;;;;;5052965;28;20246;-84
2021/01/27 06:39:30;;;;;;;5.18;4.68;;;1.80;91.50;;;;;;5050971;28;20196;-84
2021/01/27 06:42:11;;;;;;;4.88;3.75;;;1.80;91.70;;;;;;5054313;28;20191;-84
2021/01/27 06:44:51;;;;;;;4.70;4.05;;;1.80;91.80;;;;;;5065304;28;20270;-83
2021/01/27 06:47:36;;;;;;;6.28;5.15;;;1.70;91.40;;;;;;5055020;28;20206;-83
2021/01/27 06:50:17;;;;;;;5.30;4.80;;;1.60;91.60;;;;;;5067721;28;20622;-83
2021/01/27 06:53:09;;;;;;;5.60;5.10;;;1.50;91.90;;;;;;5069375;28;20661;-84
2021/01/27 06:55:59;;;;;;;5.88;4.65;;;1.60;92.00;;;;;;5056125;28;20200;-83
2021/01/27 06:58:54;;;;;;;4.60;4.15;;;1.60;91.90;;;;;;5046701;28;20271;-84
2021/01/27 07:01:41;;;;;;;5.22;4.72;;;1.80;91.80;;;;;;5051460;28;20211;-83
2021/01/27 07:04:48;;;;;;;7.03;4.97;;;1.60;91.60;;;;;;5058295;28;20214;-84
2021/01/27 07:07:46;;;;;;;5.50;4.35;;;1.50;91.10;;;;;;5006388;28;20283;-84
2021/01/27 07:10:50;;;;;;;7.22;4.75;;;1.80;91.60;;;;;;5040543;28;20212;-84
2021/01/27 07:13:45;;;;;;;7.65;4.63;;;1.90;91.70;;;;;;5069754;28;20207;-84
2021/01/27 07:16:18;;;;;;;4.60;3.90;;;1.90;91.40;;;;;;5065081;28;20199;-83
2021/01/27 07:19:15;;;;;;;4.43;4.00;;;2.00;91.40;;;;;;5053780;28;20660;-85
2021/01/27 07:21:49;;;;;;;5.75;4.57;;;2.10;91.40;;;;;;5063490;28;20266;-83
2021/01/27 07:24:24;;;;;;;5.10;4.57;;;2.20;91.30;;;;;;5066004;28;20314;-83
2021/01/27 07:26:54;;;;;;;4.40;4.00;;;2.10;91.20;;;;;;5052204;28;20703;-82
2021/01/27 07:29:26;;;;;;;4.80;4.32;;;2.00;90.90;;;;;;5070559;28;20227;-83
2021/01/27 07:31:55;;;;;;;4.20;3.75;;;1.80;90.80;;;;;;5049052;28;20564;-83
2021/01/27 07:34:28;;;;;;;4.13;3.83;;;1.90;91.50;;;;;;5061893;28;20191;-83
2021/01/27 07:37:07;;;;;;;5.40;4.68;;;2.00;91.50;;;;;;5068444;28;20267;-83
2021/01/27 07:39:55;;;;;;;5.85;4.15;;;2.00;91.50;;;;;;5058389;28;20693;-84
2021/01/27 07:42:26;;;;;;;7.20;4.15;;;1.80;91.30;;;;;;5069539;28;20207;-84
2021/01/27 07:44:57;;;;;;;5.10;3.53;;;1.70;91.50;;;;;;5065558;28;20199;-82
2021/01/27 07:47:45;;;;;;;4.53;3.40;;;1.70;91.90;;;;;;5055043;28;20202;-84
2021/01/27 07:50:14;;;;;;;6.65;3.67;;;1.60;92.50;;;;;;5068453;28;20226;-84
2021/01/27 07:52:51;;;;;;;3.50;3.17;;;1.60;93.10;;;;;;5069978;28;20664;-83
2021/01/27 07:55:23;;;;;;;4.22;3.78;;;1.40;93.80;;;;;;5052166;28;20199;-84
2021/01/27 07:57:58;;;;;;;5.03;4.53;;;1.60;94.60;;;;;;5063726;28;20540;-84
2021/01/27 08:00:31;;;;;;;4.40;4.05;;;1.80;94.50;;;;;;5068362;28;20231;-84
2021/01/27 08:03:07;;;;;;;4.10;3.70;;;1.80;94.40;;;;;;5071797;28;20203;-84
2021/01/27 08:05:39;;;;;;;5.47;4.65;;;1.70;94.50;;;;;;5071723;28;20203;-84
2021/01/27 08:08:11;;;;;;;6.50;3.75;;;1.80;94.80;;;;;;5073317;28;20214;-84
2021/01/27 08:10:40;;;;;;;5.10;4.32;;;2.00;95.00;;;;;;5060786;28;20704;-84
2021/01/27 08:13:09;;;;;;;5.32;4.72;;;2.00;94.80;;;;;;5053447;28;20203;-84
2021/01/27 08:15:58;;;;;;;5.22;4.72;;;2.10;94.80;;;;;;5058015;28;20649;-84
2021/01/27 08:18:25;;;;;;;5.03;4.10;;;2.00;94.50;;;;;;5055772;28;20293;-84
2021/01/27 08:21:23;;;;;;;5.32;4.82;;;2.00;94.50;;;;;;5060916;28;20196;-84
2021/01/27 08:23:52;;;;;;;6.13;5.18;;;2.00;94.70;;;;;;5053139;28;20322;-84
2021/01/27 08:26:50;;;;;;;5.30;4.15;;;2.20;94.90;;;;;;5061731;28;20214;-85
2021/01/27 08:29:28;;;;;;;6.72;5.47;;;2.30;94.80;;;;;;5052933;28;20252;-85
2021/01/27 08:32:22;;;;;;;4.30;4.00;;;2.30;94.90;;;;;;5059021;28;20207;-84
2021/01/27 08:34:51;;;;;;;5.78;5.15;;;2.20;94.70;;;;;;5054744;28;20215;-84
2021/01/27 08:37:25;;;;;;;5.80;5.20;;;2.20;95.20;;;;;;5062566;28;20199;-84
2021/01/27 08:40:14;;;;;;;6.32;5.05;;;2.20;94.90;;;;;;5061922;28;20200;-84
2021/01/27 08:42:44;;;;;;;6.43;5.75;;;2.30;94.90;;;;;;5060284;28;20602;-84
2021/01/27 08:45:27;;;;;;;5.88;5.32;;;2.40;95.10;;;;;;5058797;28;20196;-84
2021/01/27 08:47:56;;;;;;;7.00;6.30;;;2.40;94.80;;;;;;5059716;28;20199;-84
2021/01/27 08:50:40;;;;;;;5.43;4.93;;;2.30;94.70;;;;;;5059415;28;20249;-84
2021/01/27 08:53:08;;;;;;;5.32;4.82;;;2.40;95.00;;;;;;5062257;28;20204;-84
2021/01/27 08:55:53;;;;;;;6.93;6.03;;;2.10;95.40;;;;;;5058892;28;20199;-84
2021/01/27 08:58:40;;;;;;;6.07;5.50;;;2.10;95.80;;;;;;5055722;28;20227;-83
2021/01/27 09:01:11;;;;;;;5.93;5.40;;;2.30;95.70;;;;;;5062601;28;20210;-84
2021/01/27 09:03:59;;;;;;;7.00;6.20;;;2.40;95.40;;;;;;5072060;28;20223;-84
2021/01/27 09:06:41;;;;;;;6.80;5.50;;;2.40;95.20;;;;;;5070615;28;20231;-84
2021/01/27 09:09:23;;;;;;;5.40;4.75;;;2.40;95.40;;;;;;5059362;28;20697;-83
2021/01/27 09:11:56;;;;;;;6.13;5.38;;;2.40;95.40;;;;;;5057408;28;20200;-84
2021/01/27 09:14:24;;;;;;;9.70;6.25;;;2.30;94.90;;;;;;5068388;28;20207;-84
2021/01/27 09:16:52;;;;;;;6.60;5.70;;;2.30;95.40;;;;;;5070941;28;20199;-82
2021/01/27 09:19:23;;;;;;;7.75;5.63;;;2.30;95.60;;;;;;5072085;28;20203;-84
2021/01/27 09:22:06;;;;;;;6.43;5.22;;;2.30;95.40;;;;;;5070236;28;20199;-84
2021/01/27 09:24:38;;;;;;;4.80;4.40;;;2.30;95.70;;;;;;5070072;28;20219;-84
2021/01/27 09:27:15;;;;;;;6.15;4.60;;;2.20;95.90;;;;;;5061434;28;20208;-83
2021/01/27 09:29:42;;;;;;;8.25;6.50;;;2.20;96.00;;;;;;5053632;28;20277;-84
2021/01/27 09:32:15;;;;;;;7.20;5.03;;;2.30;95.90;;;;;;5051529;28;20204;-84
2021/01/27 09:34:42;;;;;;;5.55;5.05;;;2.10;95.90;;;;;;5051773;28;20204;-84
2021/01/27 09:37:15;;;;;;;5.72;5.20;;;2.10;96.30;;;;;;5070457;28;20563;-83
2021/01/27 09:39:46;;;;;;;5.07;4.45;;;1.90;96.50;;;;;;5064979;28;20548;-84
2021/01/27 09:42:19;;;;;;;6.00;4.85;;;2.00;96.50;;;;;;5054046;28;20203;-84
2021/01/27 09:44:49;;;;;;;7.38;5.55;;;2.10;96.50;;;;;;5069460;28;20203;-84
2021/01/27 09:47:16;;;;;;;5.57;4.30;;;2.20;96.20;;;;;;5064683;28;20196;-84
2021/01/27 09:49:48;;;;;;;5.22;4.72;;;2.30;96.00;;;;;;5071042;28;20231;-84
2021/01/27 09:52:16;;;;;;;4.40;4.00;;;2.40;96.20;;;;;;5055282;28;20196;-84
2021/01/27 09:54:46;;;;;;;11.00;4.50;;;2.10;96.10;;;;;;5052005;28;20219;-84
2021/01/27 09:57:16;;;;;;;8.73;5.35;;;2.00;96.50;;;;;;5058306;28;20562;-83
2021/01/27 09:59:47;;;;;;;6.38;3.85;;;2.20;96.70;;;;;;5070889;28;20256;-84
2021/01/27 10:02:15;;;;;;;4.82;4.28;;;2.10;96.30;;;;;;5057349;28;20192;-84
2021/01/27 10:04:42;;;;;;;4.28;3.92;;;2.10;96.70;;;;;;5053581;28;20219;-85
2021/01/27 10:07:14;;;;;;;6.13;5.03;;;2.20;96.50;;;;;;5071901;28;20199;-84
2021/01/27 10:09:45;;;;;;;11.45;6.35;;;2.30;96.30;;;;;;5069182;28;20227;-84
2021/01/27 10:12:20;;;;;;;9.63;6.00;;;1.90;96.20;;;;;;5051665;28;20222;-84
2021/01/27 10:14:48;;;;;;;6.07;4.68;;;2.00;96.60;;;;;;5052490;28;20207;-83
2021/01/27 10:17:25;;;;;;;4.80;4.50;;;2.10;96.70;;;;;;5055409;28;20586;-84
2021/01/27 10:20:01;;;;;;;5.30;4.20;;;1.90;96.60;;;;;;5054064;28;20192;-84
2021/01/27 10:22:28;;;;;;;4.60;4.20;;;1.90;97.00;;;;;;5071465;28;20198;-84
2021/01/27 10:24:59;;;;;;;4.93;4.50;;;2.00;97.20;;;;;;5060013;28;20196;-85
2021/01/27 10:27:33;;;;;;;4.50;4.10;;;2.10;97.20;;;;;;5065568;28;20195;-82
2021/01/27 10:30:01;;;;;;;3.58;3.28;;;2.00;97.30;;;;;;5054271;28;20218;-85
2021/01/27 10:32:39;;;;;;;6.25;4.90;;;2.20;97.30;;;;;;5069808;28;20203;-83
2021/01/27 10:35:33;;;;;;;4.30;3.90;;;2.20;97.10;;;;;;5056713;28;20203;-85
2021/01/27 10:38:17;;;;;;;7.70;4.35;;;2.40;96.80;;;;;;5054639;28;20740;-85
2021/01/27 10:41:22;;;;;;;3.70;3.45;;;2.20;96.40;;;;;;5058519;28;20245;-85
2021/01/27 10:43:49;;;;;;;4.15;3.70;;;2.20;96.70;;;;;;5061930;28;20297;-85
2021/01/27 10:46:32;;;;;;;3.20;2.90;;;2.40;97.10;;;;;;5066437;28;20195;-85
2021/01/27 10:49:00;;;;;;;3.70;3.40;;;2.40;96.50;;;;;;5054058;28;20914;-84
2021/01/27 10:52:11;;;;;;;3.50;3.20;;;2.40;96.20;;;;;;5059412;28;20689;-85
2021/01/27 10:54:40;;;;;;;4.18;3.75;;;2.60;96.40;;;;;;5065455;28;20199;-85
2021/01/27 10:57:06;;;;;;;3.47;3.20;;;2.40;96.00;;;;;;5066517;28;20207;-84
2021/01/27 10:59:33;;;;;;;3.53;3.22;;;2.50;96.20;;;;;;5054277;28;20195;-85
2021/01/27 11:01:59;;;;;;;4.00;3.70;;;2.60;96.10;;;;;;5056816;28;20191;-85
2021/01/27 11:04:26;;;;;;;4.07;3.40;;;2.50;95.60;;;;;;5067220;28;20215;-85
2021/01/27 11:06:53;;;;;;;3.40;3.10;;;2.50;96.20;;;;;;5061012;28;20204;-85
2021/01/27 11:09:19;;;;;;;7.70;3.85;;;2.50;96.40;;;;;;5067998;28;20253;-86
2021/01/27 11:11:46;;;;;;;6.97;4.07;;;2.50;96.30;;;;;;5067702;28;20468;-85
2021/01/27 11:14:12;;;;;;;4.53;4.00;;;2.60;96.20;;;;;;5070089;28;20199;-85
2021/01/27 11:16:39;;;;;;;3.97;3.67;;;2.90;96.30;;;;;;5066470;28;20188;-85
2021/01/27 11:19:05;;;;;;;5.28;4.13;;;2.70;95.80;;;;;;5051216;28;20192;-85
2021/01/27 11:21:32;;;;;;;4.00;3.67;;;2.60;95.90;;;;;;5070836;28;20238;-85
2021/01/27 11:23:59;;;;;;;3.63;3.30;;;2.40;96.30;;;;;;5071005;28;20207;-85
2021/01/27 11:26:25;;;;;;;5.70;4.57;;;2.40;96.60;;;;;;5065016;28;20199;-86
2021/01/27 11:28:52;;;;;;;5.22;4.63;;;2.50;96.40;;;;;;5070747;28;20704;-86
2021/01/27 11:31:19;;;;;;;3.30;3.00;;;2.40;96.50;;;;;;5066355;28;20265;-85
2021/01/27 11:33:46;;;;;;;5.13;2.95;;;2.60;96.40;;;;;;5072104;28;20218;-86
2021/01/27 11:36:14;;;;;;;4.95;2.97;;;2.80;96.00;;;;;;5057505;28;20200;-85
2021/01/27 11:38:41;;;;;;;6.65;2.90;;;2.90;95.60;;;;;;5074663;28;20244;-85
2021/01/27 11:41:08;;;;;;;3.20;2.90;;;3.00;95.70;;;;;;5062913;28;20199;-86
2021/01/27 11:43:37;;;;;;;6.00;4.93;;;3.10;95.40;;;;;;5059469;28;20195;-86
2021/01/27 11:46:03;;;;;;;4.68;3.75;;;2.80;95.30;;;;;;5065004;28;20204;-86
2021/01/27 11:48:30;;;;;;;7.70;3.40;;;3.00;95.60;;;;;;5066776;28;20200;-85
2021/01/27 11:50:56;;;;;;;4.05;3.13;;;3.30;95.50;;;;;;5065387;28;20234;-85
2021/01/27 11:53:23;;;;;;;3.35;3.05;;;3.00;95.20;;;;;;5056565;28;20254;-85
2021/01/27 11:55:50;;;;;;;5.30;3.40;;;3.20;95.10;;;;;;5073292;28;20195;-86
2021/01/27 11:58:16;;;;;;;4.00;2.70;;;3.20;94.90;;;;;;5059456;28;20208;-86
2021/01/27 12:00:46;;;;;;;3.40;3.10;;;3.00;94.40;;;;;;5062627;28;20192;-86
2021/01/27 12:03:13;;;;;;;2.97;2.67;;;3.00;95.20;;;;;;5055436;28;20501;-86
2021/01/27 12:05:39;;;;;;;3.92;3.30;;;3.00;95.40;;;;;;5074651;28;20214;-87
2021/01/27 12:08:06;;;;;;;2.67;2.47;;;3.10;95.60;;;;;;5061453;28;20200;-86
2021/01/27 12:10:33;;;;;;;2.60;2.40;;;3.10;95.30;;;;;;5062773;28;20216;-87
2021/01/27 12:13:00;;;;;;;3.20;2.30;;;3.10;95.60;;;;;;5053304;28;20552;-87
2021/01/27 12:15:27;;;;;;;2.95;2.75;;;3.20;95.30;;;;;;5053369;28;20204;-87
2021/01/27 12:17:53;;;;;;;2.65;2.45;;;3.10;95.20;;;;;;5052935;28;20208;-86
2021/01/27 12:20:20;;;;;;;2.60;2.40;;;3.00;95.30;;;;;;5055255;28;20196;-86
2021/01/27 12:22:47;;;;;;;3.30;3.00;;;3.10;95.60;;;;;;5055551;28;20196;-87
2021/01/27 12:25:14;;;;;;;2.97;2.67;;;3.20;95.30;;;;;;5073134;28;20222;-87
2021/01/27 12:27:41;;;;;;;5.15;2.72;;;3.20;95.50;;;;;;5074613;28;20203;-86
2021/01/27 12:30:11;;;;;;;2.55;2.35;;;3.10;95.50;;;;;;5062069;28;20215;-85
2021/01/27 12:32:39;;;;;;;3.10;2.83;;;2.90;95.30;;;;;;5063538;28;20283;-85
2021/01/27 12:35:08;;;;;;;4.18;2.92;;;2.90;95.50;;;;;;5071589;28;20677;-86
2021/01/27 12:37:34;;;;;;;2.78;2.58;;;2.90;96.00;;;;;;5075203;28;20207;-87
2021/01/27 12:40:01;;;;;;;3.60;3.30;;;2.90;95.80;;;;;;5073083;28;20587;-86
2021/01/27 12:42:28;;;;;;;2.95;2.63;;;2.90;95.90;;;;;;5076467;28;20601;-86
2021/01/27 12:44:54;;;;;;;3.70;3.40;;;3.00;96.10;;;;;;5068164;28;20207;-86
2021/01/27 12:47:22;;;;;;;3.97;3.05;;;3.00;96.50;;;;;;5053534;28;20204;-86
2021/01/27 12:49:49;;;;;;;4.72;3.17;;;3.20;96.70;;;;;;5072601;28;20211;-86
2021/01/27 12:52:16;;;;;;;2.72;2.53;;;3.20;96.10;;;;;;5058805;28;20200;-86
2021/01/27 12:54:42;;;;;;;3.97;3.15;;;3.40;96.00;;;;;;5054547;28;20202;-86
2021/01/27 12:57:09;;;;;;;5.80;3.97;;;2.90;96.60;;;;;;5062453;28;20572;-86
2021/01/27 12:59:35;;;;;;;5.30;4.50;;;3.10;96.50;;;;;;5073200;28;20195;-86
2021/01/27 13:02:02;;;;;;;6.68;4.05;;;3.30;96.20;;;;;;5061011;28;20219;-86
2021/01/27 13:04:30;;;;;;;3.42;3.13;;;3.50;96.60;;;;;;5066206;28;20204;-86
2021/01/27 13:06:56;;;;;;;3.88;3.20;;;3.50;96.40;;;;;;5061472;28;20196;-85
2021/01/27 13:09:23;;;;;;;4.72;3.30;;;3.50;96.40;;;;;;5063289;28;20212;-85
2021/01/27 13:11:51;;;;;;;3.53;2.75;;;3.60;96.40;;;;;;5063633;28;20219;-86
2021/01/27 13:14:19;;;;;;;3.42;3.10;;;3.40;96.20;;;;;;5060987;28;20207;-86
2021/01/27 13:16:45;;;;;;;6.80;3.47;;;3.30;96.60;;;;;;5063295;28;20192;-86
2021/01/27 13:19:12;;;;;;;3.80;3.35;;;3.30;96.40;;;;;;5060883;28;20614;-85
2021/01/27 13:21:39;;;;;;;3.38;3.00;;;3.20;96.20;;;;;;5059878;28;20204;-85
2021/01/27 13:24:06;;;;;;;3.60;3.30;;;3.20;96.50;;;;;;5052395;28;20211;-86